sensor_id;sensor_type;location;lat;lon;timestamp;temperature;humidity
67897;DHT22;54698;48.428;9.964;2022-12-13T00:00:12;-7.40;99.90
67897;DHT22;54698;48.428;9.964;2022-12-13T00:02:38;-7.40;99.90
67897;DHT22;54698;48.428;9.964;2022-12-13T00:05:07;-7.40;99.90
67897;DHT22;54698;48.428;9.964;2022-12-13T00:07:34;-7.30;99.90
67897;DHT22;54698;48.428;9.964;2022-12-13T00:10:00;-7.30;99.90
67897;DHT22;54698;48.428;9.964;2022-12-13T00:12:27;-7.30;99.90
67897;DHT22;54698;48.428;9.964;2022-12-13T00:14:53;-7.30;99.90
67897;DHT22;54698;48.428;9.964;2022-12-13T00:17:19;-7.20;99.90
67897;DHT22;54698;48.428;9.964;2022-12-13T00:19:46;-7.30;99.90
67897;DHT22;54698;48.428;9.964;2022-12-13T00:22:14;-7.40;99.90
67897;DHT22;54698;48.428;9.964;2022-12-13T00:24:40;-7.60;99.90
67897;DHT22;54698;48.428;9.964;2022-12-13T00:27:06;-7.70;99.90
67897;DHT22;54698;48.428;9.964;2022-12-13T00:29:32;-8.00;99.90
67897;DHT22;54698;48.428;9.964;2022-12-13T00:31:58;-8.20;99.90
67897;DHT22;54698;48.428;9.964;2022-12-13T00:34:24;-8.30;99.90
67897;DHT22;54698;48.428;9.964;2022-12-13T00:36:52;-8.40;99.90
67897;DHT22;54698;48.428;9.964;2022-12-13T00:39:20;-8.30;99.90
67897;DHT22;54698;48.428;9.964;2022-12-13T00:41:47;-8.30;99.90
67897;DHT22;54698;48.428;9.964;2022-12-13T00:44:15;-8.30;99.90
67897;DHT22;54698;48.428;9.964;2022-12-13T00:46:41;-8.40;99.90
67897;DHT22;54698;48.428;9.964;2022-12-13T00:49:09;-8.50;99.90
67897;DHT22;54698;48.428;9.964;2022-12-13T00:51:36;-8.50;99.90
67897;DHT22;54698;48.428;9.964;2022-12-13T00:54:03;-8.60;99.90
67897;DHT22;54698;48.428;9.964;2022-12-13T00:56:32;-8.50;99.90
67897;DHT22;54698;48.428;9.964;2022-12-13T00:58:59;-8.40;99.90
67897;DHT22;54698;48.428;9.964;2022-12-13T01:01:27;-8.30;99.90
67897;DHT22;54698;48.428;9.964;2022-12-13T01:03:55;-8.30;99.90
67897;DHT22;54698;48.428;9.964;2022-12-13T01:06:26;-8.20;99.90
67897;DHT22;54698;48.428;9.964;2022-12-13T01:08:53;-8.10;99.90
67897;DHT22;54698;48.428;9.964;2022-12-13T01:11:22;-8.00;99.90
67897;DHT22;54698;48.428;9.964;2022-12-13T01:13:51;-7.90;99.90
67897;DHT22;54698;48.428;9.964;2022-12-13T01:16:19;-7.80;99.90
67897;DHT22;54698;48.428;9.964;2022-12-13T01:18:46;-7.70;99.90
67897;DHT22;54698;48.428;9.964;2022-12-13T01:21:13;-7.60;99.90
67897;DHT22;54698;48.428;9.964;2022-12-13T01:23:41;-7.50;99.90
67897;DHT22;54698;48.428;9.964;2022-12-13T01:26:10;-7.40;99.90
67897;DHT22;54698;48.428;9.964;2022-12-13T01:28:37;-7.40;99.90
67897;DHT22;54698;48.428;9.964;2022-12-13T01:31:08;-7.40;99.90
67897;DHT22;54698;48.428;9.964;2022-12-13T01:33:35;-7.40;99.90
67897;DHT22;54698;48.428;9.964;2022-12-13T01:36:05;-7.40;99.90
67897;DHT22;54698;48.428;9.964;2022-12-13T01:38:33;-7.40;99.90
67897;DHT22;54698;48.428;9.964;2022-12-13T01:41:00;-7.40;99.90
67897;DHT22;54698;48.428;9.964;2022-12-13T01:43:30;-7.40;99.90
67897;DHT22;54698;48.428;9.964;2022-12-13T01:46:17;-7.40;99.90
67897;DHT22;54698;48.428;9.964;2022-12-13T01:48:46;-7.30;99.90
67897;DHT22;54698;48.428;9.964;2022-12-13T01:51:16;-7.40;99.90
67897;DHT22;54698;48.428;9.964;2022-12-13T01:53:46;-7.40;99.90
67897;DHT22;54698;48.428;9.964;2022-12-13T01:56:16;-7.30;99.90
67897;DHT22;54698;48.428;9.964;2022-12-13T01:58:44;-7.30;99.90
67897;DHT22;54698;48.428;9.964;2022-12-13T02:01:12;-7.30;99.90
67897;DHT22;54698;48.428;9.964;2022-12-13T02:03:39;-7.30;99.90
67897;DHT22;54698;48.428;9.964;2022-12-13T02:06:09;-7.30;99.90
67897;DHT22;54698;48.428;9.964;2022-12-13T02:08:39;-7.30;99.90
67897;DHT22;54698;48.428;9.964;2022-12-13T02:11:07;-7.40;99.90
67897;DHT22;54698;48.428;9.964;2022-12-13T02:13:34;-7.50;99.90
67897;DHT22;54698;48.428;9.964;2022-12-13T02:16:04;-7.50;99.90
67897;DHT22;54698;48.428;9.964;2022-12-13T02:18:50;-7.50;99.90
67897;DHT22;54698;48.428;9.964;2022-12-13T02:21:28;-7.50;99.90
67897;DHT22;54698;48.428;9.964;2022-12-13T02:24:33;-7.60;99.90
67897;DHT22;54698;48.428;9.964;2022-12-13T02:27:10;-7.70;99.90
67897;DHT22;54698;48.428;9.964;2022-12-13T02:35:43;-7.80;99.90
67897;DHT22;54698;48.428;9.964;2022-12-13T02:38:16;-7.80;99.90
67897;DHT22;54698;48.428;9.964;2022-12-13T02:40:52;-7.90;99.90
67897;DHT22;54698;48.428;9.964;2022-12-13T02:43:22;-7.90;99.90
67897;DHT22;54698;48.428;9.964;2022-12-13T02:45:56;-8.00;99.90
67897;DHT22;54698;48.428;9.964;2022-12-13T02:48:26;-8.00;99.90
67897;DHT22;54698;48.428;9.964;2022-12-13T02:50:55;-8.00;99.90
67897;DHT22;54698;48.428;9.964;2022-12-13T02:53:22;-8.00;99.90
67897;DHT22;54698;48.428;9.964;2022-12-13T02:55:49;-8.10;99.90
67897;DHT22;54698;48.428;9.964;2022-12-13T02:58:17;-8.00;99.90
67897;DHT22;54698;48.428;9.964;2022-12-13T03:00:55;-8.00;99.90
67897;DHT22;54698;48.428;9.964;2022-12-13T03:03:31;-8.10;99.90
67897;DHT22;54698;48.428;9.964;2022-12-13T03:06:12;-8.10;99.90
67897;DHT22;54698;48.428;9.964;2022-12-13T03:08:50;-8.10;99.90
67897;DHT22;54698;48.428;9.964;2022-12-13T03:11:24;-8.20;99.90
67897;DHT22;54698;48.428;9.964;2022-12-13T03:13:58;-8.10;99.90
67897;DHT22;54698;48.428;9.964;2022-12-13T03:16:30;-8.10;99.90
67897;DHT22;54698;48.428;9.964;2022-12-13T03:19:00;-8.10;99.90
67897;DHT22;54698;48.428;9.964;2022-12-13T03:21:27;-8.10;99.90
67897;DHT22;54698;48.428;9.964;2022-12-13T03:23:53;-8.10;99.90
67897;DHT22;54698;48.428;9.964;2022-12-13T03:26:22;-8.20;99.90
67897;DHT22;54698;48.428;9.964;2022-12-13T03:28:50;-8.20;99.90
67897;DHT22;54698;48.428;9.964;2022-12-13T03:31:16;-8.10;99.90
67897;DHT22;54698;48.428;9.964;2022-12-13T03:33:44;-8.10;99.90
67897;DHT22;54698;48.428;9.964;2022-12-13T03:36:11;-8.20;99.90
67897;DHT22;54698;48.428;9.964;2022-12-13T03:38:37;-8.20;99.90
67897;DHT22;54698;48.428;9.964;2022-12-13T03:41:06;-8.30;99.90
67897;DHT22;54698;48.428;9.964;2022-12-13T03:43:33;-8.30;99.90
67897;DHT22;54698;48.428;9.964;2022-12-13T03:45:59;-8.30;99.90
67897;DHT22;54698;48.428;9.964;2022-12-13T03:48:25;-8.30;99.90
67897;DHT22;54698;48.428;9.964;2022-12-13T03:50:53;-8.30;99.90
67897;DHT22;54698;48.428;9.964;2022-12-13T03:53:20;-8.30;99.90
67897;DHT22;54698;48.428;9.964;2022-12-13T03:55:47;-8.40;99.90
67897;DHT22;54698;48.428;9.964;2022-12-13T03:58:13;-8.30;99.90
67897;DHT22;54698;48.428;9.964;2022-12-13T04:00:38;-8.40;99.90
67897;DHT22;54698;48.428;9.964;2022-12-13T04:03:04;-8.40;99.90
67897;DHT22;54698;48.428;9.964;2022-12-13T04:05:30;-8.30;99.90
67897;DHT22;54698;48.428;9.964;2022-12-13T04:07:57;-8.30;99.90
67897;DHT22;54698;48.428;9.964;2022-12-13T04:10:23;-8.30;99.90
67897;DHT22;54698;48.428;9.964;2022-12-13T04:12:50;-8.30;99.90
67897;DHT22;54698;48.428;9.964;2022-12-13T04:15:16;-8.30;99.90
67897;DHT22;54698;48.428;9.964;2022-12-13T04:17:42;-8.40;99.90
67897;DHT22;54698;48.428;9.964;2022-12-13T04:20:09;-8.40;99.90
67897;DHT22;54698;48.428;9.964;2022-12-13T04:22:35;-8.40;99.90
67897;DHT22;54698;48.428;9.964;2022-12-13T04:25:03;-8.40;99.90
67897;DHT22;54698;48.428;9.964;2022-12-13T04:27:30;-8.40;99.90
67897;DHT22;54698;48.428;9.964;2022-12-13T04:29:56;-8.30;99.90
67897;DHT22;54698;48.428;9.964;2022-12-13T04:32:22;-8.30;99.90
67897;DHT22;54698;48.428;9.964;2022-12-13T04:34:48;-8.30;99.90
67897;DHT22;54698;48.428;9.964;2022-12-13T04:37:14;-8.20;99.90
67897;DHT22;54698;48.428;9.964;2022-12-13T04:39:40;-8.20;99.90
67897;DHT22;54698;48.428;9.964;2022-12-13T04:42:08;-8.20;99.90
67897;DHT22;54698;48.428;9.964;2022-12-13T04:44:34;-8.30;99.90
67897;DHT22;54698;48.428;9.964;2022-12-13T04:47:00;-8.20;99.90
67897;DHT22;54698;48.428;9.964;2022-12-13T04:49:26;-8.30;99.90
67897;DHT22;54698;48.428;9.964;2022-12-13T04:51:52;-8.40;99.90
67897;DHT22;54698;48.428;9.964;2022-12-13T04:54:18;-8.30;99.90
67897;DHT22;54698;48.428;9.964;2022-12-13T04:56:44;-8.30;99.90
67897;DHT22;54698;48.428;9.964;2022-12-13T04:59:11;-8.20;99.90
67897;DHT22;54698;48.428;9.964;2022-12-13T05:01:37;-8.30;99.90
67897;DHT22;54698;48.428;9.964;2022-12-13T05:04:03;-8.20;99.90
67897;DHT22;54698;48.428;9.964;2022-12-13T05:06:29;-8.20;99.90
67897;DHT22;54698;48.428;9.964;2022-12-13T05:08:55;-8.20;99.90
67897;DHT22;54698;48.428;9.964;2022-12-13T05:11:21;-8.10;99.90
67897;DHT22;54698;48.428;9.964;2022-12-13T05:13:47;-8.10;99.90
67897;DHT22;54698;48.428;9.964;2022-12-13T05:16:15;-8.20;99.90
67897;DHT22;54698;48.428;9.964;2022-12-13T05:18:41;-8.20;99.90
67897;DHT22;54698;48.428;9.964;2022-12-13T05:21:09;-8.20;99.90
67897;DHT22;54698;48.428;9.964;2022-12-13T05:23:36;-8.20;99.90
67897;DHT22;54698;48.428;9.964;2022-12-13T05:26:02;-8.30;99.90
67897;DHT22;54698;48.428;9.964;2022-12-13T05:28:29;-8.30;99.90
67897;DHT22;54698;48.428;9.964;2022-12-13T05:30:56;-8.30;99.90
67897;DHT22;54698;48.428;9.964;2022-12-13T05:33:25;-8.40;99.90
67897;DHT22;54698;48.428;9.964;2022-12-13T05:35:51;-8.40;99.90
67897;DHT22;54698;48.428;9.964;2022-12-13T05:38:17;-8.40;99.90
67897;DHT22;54698;48.428;9.964;2022-12-13T05:40:43;-8.50;99.90
67897;DHT22;54698;48.428;9.964;2022-12-13T05:43:10;-8.50;99.90
67897;DHT22;54698;48.428;9.964;2022-12-13T05:45:36;-8.50;99.90
67897;DHT22;54698;48.428;9.964;2022-12-13T05:48:02;-8.50;99.90
67897;DHT22;54698;48.428;9.964;2022-12-13T05:50:30;-8.50;99.90
67897;DHT22;54698;48.428;9.964;2022-12-13T05:52:55;-8.50;99.90
67897;DHT22;54698;48.428;9.964;2022-12-13T05:55:21;-8.60;99.90
67897;DHT22;54698;48.428;9.964;2022-12-13T05:57:47;-8.60;99.90
67897;DHT22;54698;48.428;9.964;2022-12-13T06:00:14;-8.60;99.90
67897;DHT22;54698;48.428;9.964;2022-12-13T06:02:40;-8.70;99.90
67897;DHT22;54698;48.428;9.964;2022-12-13T06:05:09;-8.70;99.90
67897;DHT22;54698;48.428;9.964;2022-12-13T06:07:37;-8.70;99.90
67897;DHT22;54698;48.428;9.964;2022-12-13T06:10:04;-8.70;99.90
67897;DHT22;54698;48.428;9.964;2022-12-13T06:12:30;-8.70;99.90
67897;DHT22;54698;48.428;9.964;2022-12-13T06:14:57;-8.70;99.90
67897;DHT22;54698;48.428;9.964;2022-12-13T06:17:23;-8.70;99.90
67897;DHT22;54698;48.428;9.964;2022-12-13T06:19:49;-8.70;99.90
67897;DHT22;54698;48.428;9.964;2022-12-13T06:22:15;-8.70;99.90
67897;DHT22;54698;48.428;9.964;2022-12-13T06:24:42;-8.70;99.90
67897;DHT22;54698;48.428;9.964;2022-12-13T06:27:08;-8.70;99.90
67897;DHT22;54698;48.428;9.964;2022-12-13T06:29:34;-8.70;99.90
67897;DHT22;54698;48.428;9.964;2022-12-13T06:32:01;-8.70;99.90
67897;DHT22;54698;48.428;9.964;2022-12-13T06:34:27;-8.70;99.90
67897;DHT22;54698;48.428;9.964;2022-12-13T06:36:53;-8.70;99.90
67897;DHT22;54698;48.428;9.964;2022-12-13T06:39:20;-8.70;99.90
67897;DHT22;54698;48.428;9.964;2022-12-13T06:41:47;-8.70;99.90
67897;DHT22;54698;48.428;9.964;2022-12-13T06:44:13;-8.70;99.90
67897;DHT22;54698;48.428;9.964;2022-12-13T06:46:38;-8.70;99.90
67897;DHT22;54698;48.428;9.964;2022-12-13T06:49:04;-8.70;99.90
67897;DHT22;54698;48.428;9.964;2022-12-13T06:51:32;-8.60;99.90
67897;DHT22;54698;48.428;9.964;2022-12-13T06:53:58;-8.60;99.90
67897;DHT22;54698;48.428;9.964;2022-12-13T06:56:24;-8.60;99.90
67897;DHT22;54698;48.428;9.964;2022-12-13T06:58:52;-8.60;99.90
67897;DHT22;54698;48.428;9.964;2022-12-13T07:01:18;-8.50;99.90
67897;DHT22;54698;48.428;9.964;2022-12-13T07:03:44;-8.50;99.90
67897;DHT22;54698;48.428;9.964;2022-12-13T07:06:12;-8.50;99.90
67897;DHT22;54698;48.428;9.964;2022-12-13T07:08:39;-8.50;99.90
67897;DHT22;54698;48.428;9.964;2022-12-13T07:11:06;-8.40;99.90
67897;DHT22;54698;48.428;9.964;2022-12-13T07:13:32;-8.40;99.90
67897;DHT22;54698;48.428;9.964;2022-12-13T07:15:59;-8.30;99.90
67897;DHT22;54698;48.428;9.964;2022-12-13T07:18:26;-8.30;99.90
67897;DHT22;54698;48.428;9.964;2022-12-13T07:20:52;-8.30;99.90
67897;DHT22;54698;48.428;9.964;2022-12-13T07:23:18;-8.30;99.90
67897;DHT22;54698;48.428;9.964;2022-12-13T07:25:50;-8.30;99.90
67897;DHT22;54698;48.428;9.964;2022-12-13T07:28:16;-8.20;99.90
67897;DHT22;54698;48.428;9.964;2022-12-13T07:30:42;-8.10;99.90
67897;DHT22;54698;48.428;9.964;2022-12-13T07:33:09;-8.10;99.90
67897;DHT22;54698;48.428;9.964;2022-12-13T07:35:35;-8.10;99.90
67897;DHT22;54698;48.428;9.964;2022-12-13T07:38:01;-8.00;99.90
67897;DHT22;54698;48.428;9.964;2022-12-13T07:40:27;-8.00;99.90
67897;DHT22;54698;48.428;9.964;2022-12-13T07:42:54;-8.00;99.90
67897;DHT22;54698;48.428;9.964;2022-12-13T07:45:21;-7.90;99.90
67897;DHT22;54698;48.428;9.964;2022-12-13T07:47:47;-7.90;99.90
67897;DHT22;54698;48.428;9.964;2022-12-13T07:50:15;-7.90;99.90
67897;DHT22;54698;48.428;9.964;2022-12-13T07:52:41;-7.90;99.90
67897;DHT22;54698;48.428;9.964;2022-12-13T07:55:07;-7.80;99.90
67897;DHT22;54698;48.428;9.964;2022-12-13T07:57:34;-7.80;99.90
67897;DHT22;54698;48.428;9.964;2022-12-13T07:59:59;-7.80;99.90
67897;DHT22;54698;48.428;9.964;2022-12-13T08:02:25;-7.70;99.90
67897;DHT22;54698;48.428;9.964;2022-12-13T08:04:51;-7.70;99.90
67897;DHT22;54698;48.428;9.964;2022-12-13T08:07:18;-7.70;99.90
67897;DHT22;54698;48.428;9.964;2022-12-13T08:09:44;-7.70;99.90
67897;DHT22;54698;48.428;9.964;2022-12-13T08:12:10;-7.70;99.90
67897;DHT22;54698;48.428;9.964;2022-12-13T08:14:36;-7.60;99.90
67897;DHT22;54698;48.428;9.964;2022-12-13T08:17:02;-7.50;99.90
67897;DHT22;54698;48.428;9.964;2022-12-13T08:19:28;-7.50;99.90
67897;DHT22;54698;48.428;9.964;2022-12-13T08:21:53;-7.50;99.90
67897;DHT22;54698;48.428;9.964;2022-12-13T08:24:21;-7.40;99.90
67897;DHT22;54698;48.428;9.964;2022-12-13T08:26:47;-7.30;99.90
67897;DHT22;54698;48.428;9.964;2022-12-13T08:29:13;-7.20;99.90
67897;DHT22;54698;48.428;9.964;2022-12-13T08:31:39;-7.10;99.90
67897;DHT22;54698;48.428;9.964;2022-12-13T08:34:05;-7.10;99.90
67897;DHT22;54698;48.428;9.964;2022-12-13T08:36:31;-7.00;99.90
67897;DHT22;54698;48.428;9.964;2022-12-13T08:38:57;-7.00;99.90
67897;DHT22;54698;48.428;9.964;2022-12-13T08:41:25;-7.00;99.90
67897;DHT22;54698;48.428;9.964;2022-12-13T08:43:50;-6.90;99.90
67897;DHT22;54698;48.428;9.964;2022-12-13T08:46:16;-6.90;99.90
67897;DHT22;54698;48.428;9.964;2022-12-13T08:48:42;-6.80;99.90
67897;DHT22;54698;48.428;9.964;2022-12-13T08:51:12;-6.80;99.90
67897;DHT22;54698;48.428;9.964;2022-12-13T08:53:39;-6.70;99.90
67897;DHT22;54698;48.428;9.964;2022-12-13T08:56:07;-6.70;99.90
67897;DHT22;54698;48.428;9.964;2022-12-13T08:58:37;-6.60;99.90
67897;DHT22;54698;48.428;9.964;2022-12-13T09:01:04;-6.60;99.90
67897;DHT22;54698;48.428;9.964;2022-12-13T09:03:30;-6.60;99.90
67897;DHT22;54698;48.428;9.964;2022-12-13T09:05:56;-6.60;99.90
67897;DHT22;54698;48.428;9.964;2022-12-13T09:08:22;-6.50;99.90
67897;DHT22;54698;48.428;9.964;2022-12-13T09:10:55;-6.40;99.90
67897;DHT22;54698;48.428;9.964;2022-12-13T09:13:21;-6.40;99.90
67897;DHT22;54698;48.428;9.964;2022-12-13T09:15:48;-6.30;99.90
67897;DHT22;54698;48.428;9.964;2022-12-13T09:18:14;-6.20;99.90
67897;DHT22;54698;48.428;9.964;2022-12-13T09:20:40;-6.20;99.90
67897;DHT22;54698;48.428;9.964;2022-12-13T09:23:05;-6.20;99.90
67897;DHT22;54698;48.428;9.964;2022-12-13T09:25:31;-6.10;99.90
67897;DHT22;54698;48.428;9.964;2022-12-13T09:27:57;-6.10;99.90
67897;DHT22;54698;48.428;9.964;2022-12-13T09:30:23;-6.10;99.90
67897;DHT22;54698;48.428;9.964;2022-12-13T09:32:50;-6.10;99.90
67897;DHT22;54698;48.428;9.964;2022-12-13T09:35:16;-6.10;99.90
67897;DHT22;54698;48.428;9.964;2022-12-13T09:37:42;-6.00;99.90
67897;DHT22;54698;48.428;9.964;2022-12-13T09:40:11;-5.90;99.90
67897;DHT22;54698;48.428;9.964;2022-12-13T09:42:48;-5.90;99.90
67897;DHT22;54698;48.428;9.964;2022-12-13T09:45:15;-5.80;99.90
67897;DHT22;54698;48.428;9.964;2022-12-13T09:47:43;-5.80;99.90
67897;DHT22;54698;48.428;9.964;2022-12-13T09:50:14;-5.70;99.90
67897;DHT22;54698;48.428;9.964;2022-12-13T09:52:44;-5.70;99.90
67897;DHT22;54698;48.428;9.964;2022-12-13T09:55:18;-5.70;99.90
67897;DHT22;54698;48.428;9.964;2022-12-13T09:57:46;-5.70;99.90
67897;DHT22;54698;48.428;9.964;2022-12-13T10:00:16;-5.60;99.90
67897;DHT22;54698;48.428;9.964;2022-12-13T10:02:45;-5.60;99.90
67897;DHT22;54698;48.428;9.964;2022-12-13T10:05:18;-5.50;99.90
67897;DHT22;54698;48.428;9.964;2022-12-13T10:07:45;-5.50;99.90
67897;DHT22;54698;48.428;9.964;2022-12-13T10:10:13;-5.30;99.90
67897;DHT22;54698;48.428;9.964;2022-12-13T10:12:41;-5.20;99.90
67897;DHT22;54698;48.428;9.964;2022-12-13T10:15:10;-5.10;99.90
67897;DHT22;54698;48.428;9.964;2022-12-13T10:17:38;-5.00;99.90
67897;DHT22;54698;48.428;9.964;2022-12-13T10:20:06;-4.90;99.90
67897;DHT22;54698;48.428;9.964;2022-12-13T10:22:37;-4.80;99.90
67897;DHT22;54698;48.428;9.964;2022-12-13T10:25:05;-4.80;99.90
67897;DHT22;54698;48.428;9.964;2022-12-13T10:27:34;-4.80;99.90
67897;DHT22;54698;48.428;9.964;2022-12-13T10:30:05;-4.90;99.90
67897;DHT22;54698;48.428;9.964;2022-12-13T10:32:40;-4.90;99.90
67897;DHT22;54698;48.428;9.964;2022-12-13T10:35:20;-4.90;99.90
67897;DHT22;54698;48.428;9.964;2022-12-13T10:37:49;-4.80;99.90
67897;DHT22;54698;48.428;9.964;2022-12-13T10:40:32;-4.60;99.90
67897;DHT22;54698;48.428;9.964;2022-12-13T10:43:07;-4.60;99.90
67897;DHT22;54698;48.428;9.964;2022-12-13T10:45:36;-4.50;99.90
67897;DHT22;54698;48.428;9.964;2022-12-13T10:48:03;-4.30;99.90
67897;DHT22;54698;48.428;9.964;2022-12-13T10:50:30;-4.20;99.90
67897;DHT22;54698;48.428;9.964;2022-12-13T10:52:58;-4.30;99.90
67897;DHT22;54698;48.428;9.964;2022-12-13T10:55:28;-4.20;99.90
67897;DHT22;54698;48.428;9.964;2022-12-13T10:57:57;-4.00;99.90
67897;DHT22;54698;48.428;9.964;2022-12-13T11:00:34;-3.90;99.90
67897;DHT22;54698;48.428;9.964;2022-12-13T11:03:02;-3.80;99.90
67897;DHT22;54698;48.428;9.964;2022-12-13T11:05:29;-3.70;99.90
67897;DHT22;54698;48.428;9.964;2022-12-13T11:08:12;-3.60;99.90
67897;DHT22;54698;48.428;9.964;2022-12-13T11:10:45;-3.50;99.90
67897;DHT22;54698;48.428;9.964;2022-12-13T11:13:31;-3.40;99.90
67897;DHT22;54698;48.428;9.964;2022-12-13T11:16:00;-3.40;99.90
67897;DHT22;54698;48.428;9.964;2022-12-13T11:18:32;-3.20;99.90
67897;DHT22;54698;48.428;9.964;2022-12-13T11:21:01;-3.30;99.90
67897;DHT22;54698;48.428;9.964;2022-12-13T11:23:33;-3.40;99.90
67897;DHT22;54698;48.428;9.964;2022-12-13T11:26:04;-3.20;99.90
67897;DHT22;54698;48.428;9.964;2022-12-13T11:29:05;-3.00;99.90
67897;DHT22;54698;48.428;9.964;2022-12-13T11:31:42;-2.90;99.90
67897;DHT22;54698;48.428;9.964;2022-12-13T11:34:21;-2.80;99.90
67897;DHT22;54698;48.428;9.964;2022-12-13T11:36:55;-2.80;99.90
67897;DHT22;54698;48.428;9.964;2022-12-13T11:39:26;-2.80;99.90
67897;DHT22;54698;48.428;9.964;2022-12-13T11:41:57;-2.90;99.90
67897;DHT22;54698;48.428;9.964;2022-12-13T11:44:31;-2.80;99.90
67897;DHT22;54698;48.428;9.964;2022-12-13T11:47:03;-2.80;99.90
67897;DHT22;54698;48.428;9.964;2022-12-13T11:49:37;-3.00;99.90
67897;DHT22;54698;48.428;9.964;2022-12-13T11:52:10;-3.00;99.90
67897;DHT22;54698;48.428;9.964;2022-12-13T11:54:46;-3.00;99.90
67897;DHT22;54698;48.428;9.964;2022-12-13T11:57:21;-3.10;99.90
67897;DHT22;54698;48.428;9.964;2022-12-13T11:59:56;-3.20;99.90
67897;DHT22;54698;48.428;9.964;2022-12-13T12:02:28;-3.30;99.90
67897;DHT22;54698;48.428;9.964;2022-12-13T12:05:01;-3.20;99.90
67897;DHT22;54698;48.428;9.964;2022-12-13T12:07:34;-3.10;99.90
67897;DHT22;54698;48.428;9.964;2022-12-13T12:10:17;-3.00;99.90
67897;DHT22;54698;48.428;9.964;2022-12-13T12:12:55;-3.00;99.90
67897;DHT22;54698;48.428;9.964;2022-12-13T12:15:28;-3.00;99.90
67897;DHT22;54698;48.428;9.964;2022-12-13T12:17:57;-3.00;99.90
67897;DHT22;54698;48.428;9.964;2022-12-13T12:20:37;-2.80;99.90
67897;DHT22;54698;48.428;9.964;2022-12-13T12:23:13;-2.80;99.90
67897;DHT22;54698;48.428;9.964;2022-12-13T12:25:52;-2.90;99.90
67897;DHT22;54698;48.428;9.964;2022-12-13T12:28:27;-2.80;99.90
67897;DHT22;54698;48.428;9.964;2022-12-13T12:31:05;-2.80;99.90
67897;DHT22;54698;48.428;9.964;2022-12-13T12:33:41;-2.50;99.90
67897;DHT22;54698;48.428;9.964;2022-12-13T12:36:27;-2.40;99.90
67897;DHT22;54698;48.428;9.964;2022-12-13T12:39:32;-2.30;99.90
67897;DHT22;54698;48.428;9.964;2022-12-13T12:42:15;-2.10;99.90
67897;DHT22;54698;48.428;9.964;2022-12-13T12:45:02;-1.90;99.90
67897;DHT22;54698;48.428;9.964;2022-12-13T12:47:46;-1.90;99.90
67897;DHT22;54698;48.428;9.964;2022-12-13T12:50:23;-1.50;99.90
67897;DHT22;54698;48.428;9.964;2022-12-13T12:53:08;-1.10;99.90
67897;DHT22;54698;48.428;9.964;2022-12-13T12:55:47;-0.80;99.90
67897;DHT22;54698;48.428;9.964;2022-12-13T12:58:24;-0.50;99.90
67897;DHT22;54698;48.428;9.964;2022-12-13T13:01:00;-0.40;99.90
67897;DHT22;54698;48.428;9.964;2022-12-13T13:03:35;-0.30;99.90
67897;DHT22;54698;48.428;9.964;2022-12-13T13:06:08;-0.10;99.90
67897;DHT22;54698;48.428;9.964;2022-12-13T13:08:40;0.00;99.90
67897;DHT22;54698;48.428;9.964;2022-12-13T13:11:11;0.30;99.90
67897;DHT22;54698;48.428;9.964;2022-12-13T13:13:44;0.20;99.90
67897;DHT22;54698;48.428;9.964;2022-12-13T13:16:30;0.20;99.90
67897;DHT22;54698;48.428;9.964;2022-12-13T13:18:58;0.30;99.90
67897;DHT22;54698;48.428;9.964;2022-12-13T13:21:33;0.20;99.90
67897;DHT22;54698;48.428;9.964;2022-12-13T13:26:58;0.00;99.90
67897;DHT22;54698;48.428;9.964;2022-12-13T13:29:44;0.00;99.90
67897;DHT22;54698;48.428;9.964;2022-12-13T13:32:24;-0.30;99.90
67897;DHT22;54698;48.428;9.964;2022-12-13T13:34:51;-0.70;99.90
67897;DHT22;54698;48.428;9.964;2022-12-13T13:37:28;-1.10;99.90
67897;DHT22;54698;48.428;9.964;2022-12-13T13:40:25;-1.30;99.90
67897;DHT22;54698;48.428;9.964;2022-12-13T13:43:11;-1.80;99.90
67897;DHT22;54698;48.428;9.964;2022-12-13T13:45:54;-2.20;99.90
67897;DHT22;54698;48.428;9.964;2022-12-13T13:48:40;-2.50;99.90
67897;DHT22;54698;48.428;9.964;2022-12-13T13:52:00;-2.60;99.90
67897;DHT22;54698;48.428;9.964;2022-12-13T13:54:57;-2.70;99.90
67897;DHT22;54698;48.428;9.964;2022-12-13T13:58:25;-2.80;99.90
67897;DHT22;54698;48.428;9.964;2022-12-13T14:01:36;-3.00;99.90
67897;DHT22;54698;48.428;9.964;2022-12-13T14:04:44;-3.20;99.90
67897;DHT22;54698;48.428;9.964;2022-12-13T14:07:42;-3.40;99.90
67897;DHT22;54698;48.428;9.964;2022-12-13T14:10:30;-3.60;99.90
67897;DHT22;54698;48.428;9.964;2022-12-13T14:13:30;-3.60;99.90
67897;DHT22;54698;48.428;9.964;2022-12-13T14:16:51;-3.70;99.90
67897;DHT22;54698;48.428;9.964;2022-12-13T14:19:53;-3.70;99.90
67897;DHT22;54698;48.428;9.964;2022-12-13T14:22:33;-3.80;99.90
67897;DHT22;54698;48.428;9.964;2022-12-13T14:25:10;-4.00;99.90
67897;DHT22;54698;48.428;9.964;2022-12-13T14:27:46;-4.10;99.90
67897;DHT22;54698;48.428;9.964;2022-12-13T14:30:18;-4.10;99.90
67897;DHT22;54698;48.428;9.964;2022-12-13T14:32:47;-4.20;99.90
67897;DHT22;54698;48.428;9.964;2022-12-13T14:35:21;-4.30;99.90
67897;DHT22;54698;48.428;9.964;2022-12-13T14:37:55;-4.40;99.90
67897;DHT22;54698;48.428;9.964;2022-12-13T14:40:25;-4.50;99.90
67897;DHT22;54698;48.428;9.964;2022-12-13T14:42:52;-4.50;99.90
67897;DHT22;54698;48.428;9.964;2022-12-13T14:45:24;-4.50;99.90
67897;DHT22;54698;48.428;9.964;2022-12-13T14:47:51;-4.60;99.90
67897;DHT22;54698;48.428;9.964;2022-12-13T14:50:17;-4.60;99.90
67897;DHT22;54698;48.428;9.964;2022-12-13T14:52:45;-4.60;99.90
67897;DHT22;54698;48.428;9.964;2022-12-13T14:55:21;-4.60;99.90
67897;DHT22;54698;48.428;9.964;2022-12-13T14:57:51;-4.70;99.90
67897;DHT22;54698;48.428;9.964;2022-12-13T15:00:25;-4.80;99.90
67897;DHT22;54698;48.428;9.964;2022-12-13T15:02:54;-4.80;99.90
67897;DHT22;54698;48.428;9.964;2022-12-13T15:05:25;-4.90;99.90
67897;DHT22;54698;48.428;9.964;2022-12-13T15:07:52;-4.90;99.90
67897;DHT22;54698;48.428;9.964;2022-12-13T15:10:20;-5.00;99.90
67897;DHT22;54698;48.428;9.964;2022-12-13T15:12:48;-5.10;99.90
67897;DHT22;54698;48.428;9.964;2022-12-13T15:15:21;-5.20;99.90
67897;DHT22;54698;48.428;9.964;2022-12-13T15:18:04;-5.20;99.90
67897;DHT22;54698;48.428;9.964;2022-12-13T15:20:31;-5.30;99.90
67897;DHT22;54698;48.428;9.964;2022-12-13T15:23:01;-5.30;99.90
67897;DHT22;54698;48.428;9.964;2022-12-13T15:25:28;-5.40;99.90
67897;DHT22;54698;48.428;9.964;2022-12-13T15:27:55;-5.40;99.90
67897;DHT22;54698;48.428;9.964;2022-12-13T15:30:21;-5.50;99.90
67897;DHT22;54698;48.428;9.964;2022-12-13T15:33:06;-5.50;99.90
67897;DHT22;54698;48.428;9.964;2022-12-13T15:35:40;-5.40;99.90
67897;DHT22;54698;48.428;9.964;2022-12-13T15:38:10;-5.40;99.90
67897;DHT22;54698;48.428;9.964;2022-12-13T15:40:37;-5.50;99.90
67897;DHT22;54698;48.428;9.964;2022-12-13T15:43:03;-5.50;99.90
67897;DHT22;54698;48.428;9.964;2022-12-13T15:45:29;-5.50;99.90
67897;DHT22;54698;48.428;9.964;2022-12-13T15:47:55;-5.50;99.90
67897;DHT22;54698;48.428;9.964;2022-12-13T15:50:34;-5.50;99.90
67897;DHT22;54698;48.428;9.964;2022-12-13T15:53:03;-5.50;99.90
67897;DHT22;54698;48.428;9.964;2022-12-13T15:55:32;-5.50;99.90
67897;DHT22;54698;48.428;9.964;2022-12-13T15:57:59;-5.50;99.90
67897;DHT22;54698;48.428;9.964;2022-12-13T16:00:26;-5.40;99.90